createdAt,value
2022-11-13T00:01:20.972Z,16.80
2022-11-13T00:04:12.614Z,14.83
2022-11-13T00:07:02.254Z,15.27
2022-11-13T00:09:53.119Z,16.53
2022-11-13T00:12:42.148Z,15.10
2022-11-13T00:15:31.661Z,14.27
2022-11-13T00:18:21.186Z,13.82
2022-11-13T00:21:12.369Z,12.73
2022-11-13T00:24:02.070Z,11.30
2022-11-13T00:26:52.757Z,11.00
2022-11-13T00:29:42.608Z,10.20
2022-11-13T00:32:31.916Z,10.10
2022-11-13T00:35:21.173Z,10.30
2022-11-13T00:38:10.644Z,10.90
2022-11-13T00:41:00.151Z,9.60
2022-11-13T00:43:51.725Z,9.87
2022-11-13T00:46:41.659Z,8.93
2022-11-13T00:49:31.454Z,10.57
2022-11-13T00:52:21.550Z,9.75
2022-11-13T00:55:11.146Z,9.77
2022-11-13T00:58:00.777Z,8.63
2022-11-13T01:00:51.571Z,9.53
2022-11-13T01:03:41.389Z,9.03
2022-11-13T01:06:31.102Z,8.43
2022-11-13T01:09:20.597Z,7.50
2022-11-13T01:12:09.937Z,6.43
2022-11-13T01:14:59.562Z,5.33
2022-11-13T01:17:52.034Z,5.87
2022-11-13T01:20:41.627Z,5.50
2022-11-13T01:23:31.404Z,6.00
2022-11-13T01:26:22.319Z,5.30
2022-11-13T01:29:13.697Z,4.73
2022-11-13T01:32:03.183Z,4.50
2022-11-13T01:34:53.710Z,4.37
2022-11-13T01:37:45.224Z,4.30
2022-11-13T01:40:35.322Z,4.37
2022-11-13T01:43:29.430Z,4.70
2022-11-13T01:46:20.881Z,5.20
2022-11-13T01:49:18.105Z,5.37
2022-11-13T01:52:10.769Z,5.00
2022-11-13T01:55:02.324Z,5.03
2022-11-13T01:57:51.735Z,5.83
2022-11-13T02:00:41.056Z,5.50
2022-11-13T02:03:30.480Z,5.77
2022-11-13T02:06:20.278Z,5.07
2022-11-13T02:09:11.958Z,5.77
2022-11-13T02:12:01.779Z,6.20
2022-11-13T02:14:52.682Z,5.83
2022-11-13T02:17:44.691Z,7.10
2022-11-13T02:20:37.807Z,5.80
2022-11-13T02:23:30.824Z,6.27
2022-11-13T02:26:22.715Z,6.43
2022-11-13T02:29:12.160Z,7.40
2022-11-13T03:31:02.230Z,6.70
2022-11-13T03:33:51.565Z,6.73
2022-11-13T03:36:41.191Z,7.43
2022-11-13T03:39:31.085Z,7.07
2022-11-13T03:42:20.085Z,6.67
2022-11-13T03:45:09.766Z,7.10
2022-11-13T03:48:00.589Z,7.00
2022-11-13T03:50:51.187Z,6.80
2022-11-13T03:53:40.987Z,7.23
2022-11-13T03:56:30.686Z,6.10
2022-11-13T03:59:19.882Z,6.90
2022-11-13T04:02:09.100Z,6.27
2022-11-13T04:05:00.523Z,7.20
2022-11-13T04:07:49.673Z,6.63
2022-11-13T04:10:38.916Z,6.57
2022-11-13T04:13:28.370Z,7.20
2022-11-13T04:16:17.679Z,6.13
2022-11-13T04:19:07.296Z,6.50
2022-11-13T04:21:58.157Z,6.83
2022-11-13T04:24:47.017Z,5.33
2022-11-13T04:27:36.847Z,5.63
2022-11-13T04:30:25.983Z,4.83
2022-11-13T04:33:15.266Z,5.50
2022-11-13T04:36:04.836Z,6.27
2022-11-13T04:38:55.433Z,6.80
2022-11-13T04:42:01.685Z,7.57
2022-11-13T04:44:51.254Z,8.43
2022-11-13T04:47:40.753Z,9.03
2022-11-13T04:50:30.234Z,8.07
2022-11-13T04:53:19.628Z,7.63
2022-11-13T04:56:10.559Z,8.33
2022-11-13T04:59:00.179Z,8.80
2022-11-13T05:01:50.241Z,8.80
2022-11-13T05:04:40.215Z,8.73
2022-11-13T05:07:29.709Z,8.57
2022-11-13T05:10:19.498Z,8.93
2022-11-13T05:13:10.750Z,9.67
2022-11-13T05:16:03.627Z,9.13
2022-11-13T05:18:52.970Z,9.07
2022-11-13T05:21:42.526Z,8.73
2022-11-13T05:24:31.865Z,8.07
2022-11-13T05:27:20.921Z,9.53
2022-11-13T05:30:12.846Z,9.30
2022-11-13T05:33:02.451Z,10.33
2022-11-13T05:35:52.323Z,9.47
2022-11-13T05:38:43.086Z,9.70
2022-11-13T05:41:32.715Z,9.30
2022-11-13T05:44:22.358Z,8.97
2022-11-13T05:47:13.247Z,8.97
2022-11-13T05:50:02.585Z,8.13
2022-11-13T05:52:54.261Z,8.87
2022-11-13T05:55:44.378Z,9.20
2022-11-13T05:58:34.394Z,9.17
2022-11-13T06:01:24.614Z,7.50
2022-11-13T06:04:15.604Z,7.87
2022-11-13T06:07:05.249Z,7.47
2022-11-13T06:09:54.998Z,7.33
2022-11-13T06:12:44.670Z,8.57
2022-11-13T06:15:33.950Z,7.87
2022-11-13T06:18:26.775Z,8.07
2022-11-13T06:21:18.723Z,7.77
2022-11-13T06:24:08.227Z,7.27
2022-11-13T06:26:57.789Z,7.83
2022-11-13T06:29:47.371Z,8.20
2022-11-13T06:32:37.140Z,8.07
2022-11-13T06:35:26.456Z,8.70
2022-11-13T06:38:18.351Z,7.70
2022-11-13T06:41:08.511Z,8.37
2022-11-13T06:44:02.345Z,8.27
2022-11-13T06:46:52.645Z,8.43
2022-11-13T06:49:41.975Z,8.37
2022-11-13T06:52:31.337Z,8.40
2022-11-13T06:55:22.162Z,8.10
2022-11-13T06:58:11.798Z,7.67
2022-11-13T07:01:06.771Z,8.87
2022-11-13T07:03:56.304Z,8.57
2022-11-13T07:06:45.917Z,8.87
2022-11-13T07:09:35.525Z,8.83
2022-11-13T07:12:26.470Z,8.93
2022-11-13T07:15:16.736Z,9.07
2022-11-13T07:18:08.843Z,8.23
2022-11-13T07:20:58.236Z,8.83
2022-11-13T07:23:49.578Z,9.35
2022-11-13T07:26:39.172Z,8.40
2022-11-13T07:29:29.707Z,7.47
2022-11-13T07:32:18.956Z,7.67
2022-11-13T07:35:10.345Z,8.68
2022-11-13T07:37:59.619Z,8.23
2022-11-13T07:40:48.746Z,8.47
2022-11-13T07:43:37.618Z,9.48
2022-11-13T07:46:28.383Z,10.47
2022-11-13T07:49:17.468Z,10.30
2022-11-13T07:52:07.048Z,10.25
2022-11-13T07:54:56.425Z,9.87
2022-11-13T07:57:45.928Z,8.90
2022-11-13T08:00:37.422Z,9.50
2022-11-13T08:03:28.722Z,10.53
2022-11-13T08:06:17.902Z,10.23
2022-11-13T08:09:07.409Z,11.50
2022-11-13T08:11:56.403Z,11.27
2022-11-13T08:14:45.381Z,11.77
2022-11-13T08:17:34.932Z,10.90
2022-11-13T08:20:26.050Z,11.40
2022-11-13T08:23:15.336Z,11.77
2022-11-13T08:26:07.046Z,10.87
2022-11-13T08:28:56.592Z,12.05
2022-11-13T08:31:45.963Z,11.63
2022-11-13T08:34:35.644Z,10.93
2022-11-13T08:37:26.660Z,11.57
2022-11-13T08:40:15.947Z,24.73
2022-11-13T08:43:06.084Z,13.50
2022-11-13T08:45:55.785Z,12.60
2022-11-13T08:48:44.653Z,11.45
2022-11-13T08:51:33.396Z,13.23
2022-11-13T08:54:24.181Z,11.25
2022-11-13T08:57:13.345Z,10.95
2022-11-13T09:00:02.711Z,9.73
2022-11-13T09:02:56.048Z,9.57
2022-11-13T09:05:45.068Z,9.35
2022-11-13T09:08:34.494Z,9.90
2022-11-13T09:11:28.042Z,9.82
2022-11-13T09:14:17.117Z,7.75
2022-11-13T09:17:06.159Z,8.02
2022-11-13T09:19:55.771Z,8.15
2022-11-13T09:22:46.855Z,7.22
2022-11-13T09:25:38.214Z,8.90
2022-11-13T09:28:29.172Z,7.82
2022-11-13T09:31:19.147Z,7.47
2022-11-13T09:34:07.932Z,7.95
2022-11-13T09:36:57.032Z,7.50
2022-11-13T09:39:46.303Z,7.50
2022-11-13T09:42:36.763Z,7.60
2022-11-13T09:45:28.203Z,6.63
2022-11-13T09:48:27.613Z,6.50
2022-11-13T09:51:19.839Z,6.70
2022-11-13T09:54:13.841Z,7.43
2022-11-13T09:57:11.108Z,9.15
2022-11-13T10:00:02.914Z,9.48
2022-11-13T10:03:03.263Z,7.07
2022-11-13T10:06:00.648Z,7.63
2022-11-13T10:08:57.700Z,6.75
2022-11-13T10:11:54.780Z,6.70
2022-11-13T10:14:48.008Z,6.50
2022-11-13T10:17:40.485Z,6.28
2022-11-13T10:20:36.115Z,6.60
2022-11-13T10:23:30.838Z,6.53
2022-11-13T10:26:22.997Z,7.18
2022-11-13T10:29:15.178Z,5.68
2022-11-13T10:32:18.238Z,6.63
2022-11-13T10:35:14.372Z,6.30
2022-11-13T10:38:08.938Z,7.38
2022-11-13T10:41:08.135Z,5.55
2022-11-13T10:44:00.972Z,6.45
2022-11-13T10:46:50.853Z,6.55
2022-11-13T10:49:40.411Z,6.88
2022-11-13T10:52:30.515Z,7.50
2022-11-13T10:55:27.222Z,7.50
2022-11-13T10:58:18.337Z,7.00
2022-11-13T11:01:15.804Z,7.30
2022-11-13T11:04:06.587Z,7.88
2022-11-13T11:07:19.137Z,7.20
2022-11-13T11:10:09.158Z,7.35
2022-11-13T11:13:04.488Z,7.25
2022-11-13T11:15:57.554Z,7.32
2022-11-13T11:18:53.119Z,7.43
2022-11-13T11:21:44.727Z,7.50
2022-11-13T11:24:38.505Z,8.02
2022-11-13T11:27:34.544Z,8.48
2022-11-13T11:30:26.750Z,7.88
2022-11-13T11:33:18.862Z,8.32
2022-11-13T11:36:19.533Z,8.15
2022-11-13T11:39:27.500Z,8.25
2022-11-13T11:42:30.323Z,7.53
2022-11-13T11:45:31.905Z,8.25
2022-11-13T11:48:23.374Z,8.65
2022-11-13T11:51:23.125Z,8.95
2022-11-13T11:54:23.232Z,10.18
2022-11-13T11:57:28.244Z,9.60
2022-11-13T12:00:20.024Z,10.13
2022-11-13T12:03:43.030Z,7.70
2022-11-13T12:06:42.938Z,7.18
2022-11-13T12:09:35.238Z,7.03
2022-11-13T12:12:34.284Z,8.00
2022-11-13T12:15:29.433Z,7.45
2022-11-13T12:18:28.091Z,7.63
2022-11-13T12:21:24.822Z,7.93
2022-11-13T12:24:29.096Z,7.85
2022-11-13T12:27:26.444Z,7.85
2022-11-13T12:30:19.305Z,7.78
2022-11-13T12:33:23.228Z,9.55
2022-11-13T12:36:14.605Z,8.23
2022-11-13T12:39:14.687Z,8.30
2022-11-13T12:42:21.088Z,7.35
2022-11-13T12:45:19.968Z,6.32
2022-11-13T12:48:22.930Z,6.57
2022-11-13T12:51:14.130Z,7.05
2022-11-13T12:54:05.992Z,7.53
2022-11-13T12:56:55.639Z,6.65
2022-11-13T12:59:46.898Z,9.05
2022-11-13T13:02:47.406Z,8.00
2022-11-13T13:06:06.802Z,7.53
2022-11-13T13:09:08.629Z,9.02
2022-11-13T13:12:07.117Z,8.57
2022-11-13T13:15:13.641Z,9.07
2022-11-13T13:18:10.637Z,8.10
2022-11-13T13:21:07.090Z,8.75
2022-11-13T13:23:56.802Z,9.70
2022-11-13T13:26:48.944Z,9.05
2022-11-13T13:29:43.895Z,11.93
2022-11-13T13:32:43.016Z,9.45
2022-11-13T13:35:39.139Z,8.68
2022-11-13T13:38:34.702Z,8.10
2022-11-13T13:41:33.861Z,7.38
2022-11-13T13:44:47.535Z,8.13
2022-11-13T13:47:40.657Z,8.90
2022-11-13T13:50:33.795Z,7.78
2022-11-13T13:53:27.311Z,7.75
2022-11-13T13:56:17.320Z,8.20
2022-11-13T13:59:07.954Z,8.02
2022-11-13T14:02:00.088Z,7.60
2022-11-13T14:04:50.712Z,9.07
2022-11-13T14:07:48.329Z,8.63
2022-11-13T14:10:39.239Z,9.98
2022-11-13T14:13:30.752Z,8.70
2022-11-13T14:16:20.456Z,9.77
2022-11-13T14:19:13.635Z,8.73
2022-11-13T14:22:06.590Z,8.85
2022-11-13T14:24:58.802Z,10.80
2022-11-13T14:27:48.293Z,8.77
2022-11-13T14:30:37.249Z,9.55
2022-11-13T14:33:31.286Z,9.20
2022-11-13T14:36:31.812Z,8.00
2022-11-13T14:39:26.203Z,9.07
2022-11-13T14:42:20.074Z,9.10
2022-11-13T14:45:17.761Z,8.20
2022-11-13T14:48:20.275Z,8.45
2022-11-13T14:51:26.171Z,7.68
2022-11-13T14:54:53.311Z,8.80
2022-11-13T14:57:49.236Z,8.55
2022-11-13T15:00:40.874Z,9.10
2022-11-13T15:03:31.957Z,8.93
2022-11-13T15:06:23.799Z,9.40
2022-11-13T15:09:17.255Z,8.80
2022-11-13T15:12:07.124Z,8.68
2022-11-13T15:14:56.499Z,9.50
2022-11-13T15:17:46.053Z,9.00
2022-11-13T15:20:35.276Z,8.45
2022-11-13T15:23:26.668Z,9.00
2022-11-13T15:26:17.188Z,9.13
2022-11-13T15:29:06.485Z,8.27
2022-11-13T15:31:56.249Z,8.80
2022-11-13T15:34:45.782Z,8.63
2022-11-13T15:37:35.103Z,10.07
2022-11-13T15:40:24.482Z,8.98
2022-11-13T15:43:21.314Z,10.43
2022-11-13T15:46:14.908Z,8.70
2022-11-13T15:49:06.000Z,9.45
2022-11-13T15:51:55.601Z,9.52
2022-11-13T15:54:44.921Z,10.18
2022-11-13T15:57:34.978Z,10.52
2022-11-13T16:00:26.587Z,10.35
2022-11-13T16:03:15.860Z,11.20
2022-11-13T16:06:05.752Z,10.48
2022-11-13T16:08:54.484Z,10.27
2022-11-13T16:11:44.998Z,9.73
2022-11-13T16:14:34.429Z,10.77
2022-11-13T16:17:25.300Z,12.63
2022-11-13T16:20:15.631Z,10.40
2022-11-13T16:23:04.964Z,11.38
2022-11-13T16:25:54.879Z,11.65
2022-11-13T16:29:12.274Z,11.88
2022-11-13T16:31:53.971Z,11.98
2022-11-13T16:34:44.357Z,13.00
2022-11-13T16:37:33.526Z,12.80
2022-11-13T16:40:23.751Z,11.68
2022-11-13T16:43:13.597Z,12.73
2022-11-13T16:46:02.957Z,11.98
2022-11-13T16:48:52.180Z,12.70
2022-11-13T16:51:43.125Z,12.15
2022-11-13T16:54:32.363Z,11.95
2022-11-13T16:57:23.124Z,12.48
2022-11-13T17:00:15.349Z,11.55
2022-11-13T17:03:05.011Z,13.27
2022-11-13T17:05:55.252Z,12.93
2022-11-13T17:08:46.584Z,13.32
2022-11-13T17:11:35.490Z,12.70
2022-11-13T17:14:25.278Z,11.70
2022-11-13T17:17:15.004Z,12.02
2022-11-13T17:20:04.303Z,14.98
2022-11-13T17:22:53.927Z,12.48
2022-11-13T17:25:44.885Z,12.55
2022-11-13T17:28:34.672Z,12.38
2022-11-13T17:31:24.360Z,10.55
2022-11-13T17:34:14.000Z,12.07
2022-11-13T17:37:03.400Z,12.05
2022-11-13T17:39:52.941Z,11.98
2022-11-13T17:42:45.330Z,12.65
2022-11-13T17:45:38.226Z,12.45
2022-11-13T17:48:28.117Z,11.85
2022-11-13T17:51:18.028Z,12.52
2022-11-13T17:54:07.298Z,13.52
2022-11-13T17:56:56.418Z,11.93
2022-11-13T17:59:47.629Z,12.60
2022-11-13T18:02:36.712Z,12.68
2022-11-13T18:05:25.543Z,11.93
2022-11-13T18:08:15.110Z,12.07
2022-11-13T18:11:10.018Z,12.20
2022-11-13T18:13:59.189Z,13.18
2022-11-13T18:16:50.154Z,13.68
2022-11-13T18:19:39.567Z,12.55
2022-11-13T18:22:29.069Z,13.02
2022-11-13T18:25:18.474Z,13.40
2022-11-13T18:28:11.279Z,13.63
2022-11-13T18:31:03.330Z,13.77
2022-11-13T18:33:53.836Z,14.18
2022-11-13T18:36:43.203Z,13.98
2022-11-13T18:39:33.333Z,13.90
2022-11-13T18:42:22.970Z,13.68
2022-11-13T18:45:16.644Z,14.00
2022-11-13T18:48:06.169Z,14.40
2022-11-13T18:51:00.338Z,14.30
2022-11-13T18:53:50.456Z,15.82
2022-11-13T18:56:40.874Z,14.90
2022-11-13T18:59:29.867Z,17.83
2022-11-13T19:02:19.365Z,19.17
2022-11-13T19:05:08.940Z,17.63
2022-11-13T19:07:59.301Z,15.23
2022-11-13T19:10:48.750Z,15.57
2022-11-13T19:13:37.895Z,14.55
2022-11-13T19:16:28.417Z,15.55
2022-11-13T19:19:18.394Z,14.05
2022-11-13T19:22:07.651Z,15.32
2022-11-13T19:24:58.281Z,14.38
2022-11-13T19:27:47.895Z,15.52
2022-11-13T19:30:37.329Z,15.70
2022-11-13T19:33:27.673Z,14.80
2022-11-13T19:36:18.220Z,17.23
2022-11-13T19:39:07.962Z,20.75
2022-11-13T19:41:58.961Z,16.15
2022-11-13T19:44:47.924Z,15.82
2022-11-13T19:47:36.984Z,17.23
2022-11-13T19:50:26.046Z,15.55
2022-11-13T19:53:16.143Z,18.02
2022-11-13T19:56:06.116Z,15.00
2022-11-13T19:58:57.271Z,15.43
2022-11-13T20:01:46.221Z,15.75
2022-11-13T20:04:35.750Z,16.80
2022-11-13T20:07:25.173Z,16.45
2022-11-13T20:10:14.745Z,16.30
2022-11-13T20:13:03.912Z,16.05
2022-11-13T20:15:56.300Z,17.85
2022-11-13T20:18:46.620Z,16.48
2022-11-13T20:21:35.717Z,16.10
2022-11-13T20:24:25.026Z,17.17
2022-11-13T20:27:14.131Z,17.40
2022-11-13T20:30:03.712Z,18.20
2022-11-13T20:32:54.813Z,17.58
2022-11-13T20:35:44.305Z,18.77
2022-11-13T20:38:33.311Z,18.45
2022-11-13T20:41:23.966Z,18.15
2022-11-13T20:44:15.825Z,19.40
2022-11-13T20:47:04.755Z,17.80
2022-11-13T20:49:55.535Z,18.33
2022-11-13T20:52:44.620Z,18.40
2022-11-13T20:55:33.924Z,19.13
2022-11-13T20:58:23.477Z,18.50
2022-11-13T21:01:14.362Z,19.95
2022-11-13T21:04:04.039Z,17.85
2022-11-13T21:06:55.240Z,20.17
2022-11-13T21:09:48.798Z,18.55
2022-11-13T21:12:39.038Z,19.33
2022-11-13T21:15:29.451Z,17.75
2022-11-13T21:18:18.563Z,17.25
2022-11-13T21:21:09.139Z,17.88
2022-11-13T21:24:01.762Z,19.30
2022-11-13T21:26:51.698Z,18.80
2022-11-13T21:29:45.554Z,17.83
2022-11-13T21:32:36.499Z,19.85
2022-11-13T21:35:26.143Z,19.38
2022-11-13T21:38:15.262Z,19.25
2022-11-13T21:41:25.967Z,19.92
2022-11-13T21:44:15.486Z,19.33
2022-11-13T21:47:05.020Z,19.13
2022-11-13T21:49:53.679Z,19.60
2022-11-13T21:52:42.788Z,20.70
2022-11-13T21:55:32.185Z,20.38
2022-11-13T21:58:31.352Z,20.07
2022-11-13T22:01:23.079Z,19.10
2022-11-13T22:04:12.576Z,21.70
2022-11-13T22:07:02.530Z,24.42
2022-11-13T22:09:51.581Z,22.10
2022-11-13T22:12:41.262Z,25.10
2022-11-13T22:15:32.442Z,22.55
2022-11-13T22:18:21.705Z,22.42
2022-11-13T22:21:12.354Z,20.70
2022-11-13T22:24:02.821Z,20.38
2022-11-13T22:26:52.162Z,22.38
2022-11-13T22:29:41.429Z,23.08
2022-11-13T22:32:32.206Z,20.67
2022-11-13T22:35:21.474Z,21.58
2022-11-13T22:38:11.008Z,21.98
2022-11-13T22:41:05.557Z,21.33
2022-11-13T22:43:55.834Z,21.10
2022-11-13T22:46:44.776Z,21.95
2022-11-13T22:49:35.397Z,22.05
2022-11-13T22:52:24.543Z,22.27
2022-11-13T22:55:13.810Z,22.20
2022-11-13T22:58:03.412Z,22.83
2022-11-13T23:00:52.216Z,20.80
2022-11-13T23:03:43.619Z,21.55
2022-11-13T23:06:36.425Z,22.23
2022-11-13T23:09:27.433Z,21.60
2022-11-13T23:12:16.628Z,21.38
2022-11-13T23:15:06.605Z,22.35
2022-11-13T23:17:55.404Z,22.27
2022-11-13T23:20:45.413Z,21.50
2022-11-13T23:23:36.938Z,22.90
2022-11-13T23:26:26.601Z,23.00
2022-11-13T23:29:16.235Z,22.58
2022-11-13T23:32:05.329Z,22.27
2022-11-13T23:34:59.168Z,22.58
2022-11-13T23:37:49.514Z,20.77
2022-11-13T23:40:40.153Z,21.23
2022-11-13T23:44:02.129Z,21.83
2022-11-13T23:46:43.332Z,21.35
2022-11-13T23:49:32.866Z,20.50
2022-11-13T23:52:22.064Z,20.83
2022-11-13T23:55:12.092Z,20.92
2022-11-13T23:58:03.032Z,20.02
